createdAt,value
2016-10-30T00:00:18.083Z,1017.76
2016-10-30T00:01:18.100Z,1017.77
2016-10-30T00:02:18.116Z,1017.72
2016-10-30T00:03:18.135Z,1017.73
2016-10-30T00:04:18.152Z,1017.68
2016-10-30T00:05:18.170Z,1017.67
2016-10-30T00:06:18.188Z,1017.67
2016-10-30T00:07:18.203Z,1017.66
2016-10-30T00:08:18.220Z,1017.64
2016-10-30T00:09:18.239Z,1017.67
2016-10-30T00:10:18.257Z,1017.65
2016-10-30T00:11:18.272Z,1017.63
2016-10-30T00:12:18.289Z,1017.62
2016-10-30T00:13:18.307Z,1017.63
2016-10-30T00:14:18.323Z,1017.58
2016-10-30T00:15:18.340Z,1017.6
2016-10-30T00:16:18.359Z,1017.61
2016-10-30T00:17:18.378Z,1017.59
2016-10-30T00:18:18.392Z,1017.54
2016-10-30T00:19:18.412Z,1017.57
2016-10-30T00:20:18.429Z,1017.54
2016-10-30T00:21:18.445Z,1017.51
2016-10-30T00:22:18.464Z,1017.53
2016-10-30T00:23:18.481Z,1017.51
2016-10-30T00:24:18.497Z,1017.52
2016-10-30T00:25:18.515Z,1017.45
2016-10-30T00:26:18.532Z,1017.46
2016-10-30T00:27:18.548Z,1017.44
2016-10-30T00:28:18.564Z,1017.38
2016-10-30T00:29:18.581Z,1017.44
2016-10-30T00:30:18.600Z,1017.44
2016-10-30T00:31:18.619Z,1017.47
2016-10-30T00:32:18.634Z,1017.53
2016-10-30T00:33:18.651Z,1017.51
2016-10-30T00:34:18.670Z,1017.48
2016-10-30T00:35:18.687Z,1017.53
2016-10-30T00:36:18.703Z,1017.49
2016-10-30T00:37:18.721Z,1017.52
2016-10-30T00:38:18.737Z,1017.45
2016-10-30T00:39:18.756Z,1017.47
2016-10-30T00:40:18.771Z,1017.44
2016-10-30T00:41:18.789Z,1017.47
2016-10-30T00:42:18.806Z,1017.42
2016-10-30T00:43:18.825Z,1017.45
2016-10-30T00:44:18.843Z,1017.48
2016-10-30T00:45:18.862Z,1017.47
2016-10-30T00:46:18.875Z,1017.48
2016-10-30T00:47:18.888Z,1017.48
2016-10-30T00:48:18.908Z,1017.45
2016-10-30T00:49:18.921Z,1017.48
2016-10-30T00:50:18.941Z,1017.49
2016-10-30T00:51:18.962Z,1017.49
2016-10-30T00:52:18.974Z,1017.48
2016-10-30T00:53:18.991Z,1017.5
2016-10-30T00:54:19.011Z,1017.51
2016-10-30T00:55:19.027Z,1017.52
2016-10-30T00:56:19.044Z,1017.5
2016-10-30T00:57:19.059Z,1017.52
2016-10-30T00:58:19.079Z,1017.47
2016-10-30T00:59:19.093Z,1017.51
2016-10-30T01:00:19.114Z,1017.45
2016-10-30T01:01:19.132Z,1017.45
2016-10-30T01:02:19.145Z,1017.43
2016-10-30T01:03:19.166Z,1017.43
2016-10-30T01:04:19.180Z,1017.45
2016-10-30T01:05:19.203Z,1017.43
2016-10-30T01:06:19.217Z,1017.47
2016-10-30T01:07:19.232Z,1017.42
2016-10-30T01:08:19.251Z,1017.43
2016-10-30T01:09:19.267Z,1017.44
2016-10-30T01:10:19.286Z,1017.46
2016-10-30T01:11:19.303Z,1017.45
2016-10-30T01:12:19.318Z,1017.4
2016-10-30T01:13:19.337Z,1017.39
2016-10-30T01:14:19.353Z,1017.39
2016-10-30T01:15:19.371Z,1017.39
2016-10-30T01:16:19.390Z,1017.3
2016-10-30T01:17:19.407Z,1017.31
2016-10-30T01:18:19.426Z,1017.3
2016-10-30T01:19:19.443Z,1017.34
2016-10-30T01:20:19.458Z,1017.32
2016-10-30T01:21:19.475Z,1017.27
2016-10-30T01:22:19.491Z,1017.35
2016-10-30T01:23:19.507Z,1017.31
2016-10-30T01:24:19.528Z,1017.31
2016-10-30T01:25:19.543Z,1017.32
2016-10-30T01:26:19.560Z,1017.31
2016-10-30T01:27:19.580Z,1017.31
2016-10-30T01:28:19.596Z,1017.25
2016-10-30T01:29:19.610Z,1017.25
2016-10-30T01:30:19.630Z,1017.26
2016-10-30T01:31:19.645Z,1017.26
2016-10-30T01:32:19.662Z,1017.26
2016-10-30T01:33:19.683Z,1017.28
2016-10-30T01:34:32.436Z,1017.24
2016-10-30T01:35:19.717Z,1017.24
2016-10-30T01:36:19.732Z,1017.25
2016-10-30T01:37:19.754Z,1017.25
2016-10-30T01:38:19.767Z,1017.26
2016-10-30T01:39:19.783Z,1017.22
2016-10-30T01:40:19.804Z,1017.31
2016-10-30T01:41:19.818Z,1017.25
2016-10-30T01:42:19.835Z,1017.21
2016-10-30T01:43:19.960Z,1017.22
2016-10-30T01:44:19.970Z,1017.21
2016-10-30T01:45:20.117Z,1017.19
2016-10-30T01:46:20.013Z,1017.17
2016-10-30T01:47:20.021Z,1017.2
2016-10-30T01:48:20.021Z,1017.17
2016-10-30T01:49:20.031Z,1017.15
2016-10-30T01:50:20.152Z,1017.17
2016-10-30T01:51:20.043Z,1017.15
2016-10-30T01:52:20.054Z,1017.15
2016-10-30T01:53:20.095Z,1017.14
2016-10-30T01:54:20.104Z,1017.14
2016-10-30T01:55:20.163Z,1017.15
2016-10-30T01:56:20.118Z,1017.12
2016-10-30T01:57:20.130Z,1017.12
2016-10-30T01:58:20.129Z,1017.12
2016-10-30T01:59:20.137Z,1017.07
2016-10-30T02:00:20.243Z,1017.08
2016-10-30T02:01:20.162Z,1017.06
2016-10-30T02:02:20.176Z,1017.05
2016-10-30T02:03:20.195Z,1017.02
2016-10-30T02:04:20.211Z,1016.97
2016-10-30T02:05:20.229Z,1017.02
2016-10-30T02:06:20.250Z,1017.02
2016-10-30T02:07:39.471Z,1017.03
2016-10-30T02:08:20.281Z,1017.04
2016-10-30T02:09:20.301Z,1017.02
2016-10-30T02:10:20.317Z,1017
2016-10-30T02:11:20.334Z,1017.02
2016-10-30T02:12:20.350Z,1016.96
2016-10-30T02:13:20.367Z,1016.97
2016-10-30T02:14:20.388Z,1016.99
2016-10-30T02:15:20.405Z,1016.95
2016-10-30T02:16:20.419Z,1016.92
2016-10-30T02:17:20.438Z,1016.98
2016-10-30T02:18:20.454Z,1016.93
2016-10-30T02:19:20.470Z,1016.9
2016-10-30T02:20:20.487Z,1016.95
2016-10-30T02:21:20.507Z,1016.88
2016-10-30T02:22:20.522Z,1016.85
2016-10-30T02:23:20.539Z,1016.86
2016-10-30T02:24:20.555Z,1016.86
2016-10-30T02:25:20.574Z,1016.89
2016-10-30T02:26:20.591Z,1016.88
2016-10-30T02:27:20.608Z,1016.92
2016-10-30T02:28:20.631Z,1016.92
2016-10-30T02:29:20.641Z,1016.95
2016-10-30T02:30:20.656Z,1016.93
2016-10-30T02:31:20.679Z,1016.92
2016-10-30T02:32:20.693Z,1016.94
2016-10-30T02:33:20.710Z,1016.93
2016-10-30T02:34:20.725Z,1016.93
2016-10-30T02:35:20.745Z,1016.93
2016-10-30T02:36:20.765Z,1016.93
2016-10-30T02:37:20.779Z,1016.91
2016-10-30T02:38:20.794Z,1016.91
2016-10-30T02:39:20.813Z,1016.91
2016-10-30T02:40:20.834Z,1016.87
2016-10-30T02:41:20.849Z,1016.85
2016-10-30T02:42:20.866Z,1016.82
2016-10-30T02:43:20.883Z,1016.8
2016-10-30T02:44:20.897Z,1016.79
2016-10-30T02:45:20.915Z,1016.8
2016-10-30T02:46:20.933Z,1016.78
2016-10-30T02:47:20.948Z,1016.78
2016-10-30T02:48:20.967Z,1016.72
2016-10-30T02:49:20.989Z,1016.74
2016-10-30T02:50:21.000Z,1016.74
2016-10-30T02:51:21.016Z,1016.77
2016-10-30T02:52:21.036Z,1016.78
2016-10-30T02:53:21.053Z,1016.75
2016-10-30T02:54:21.071Z,1016.72
2016-10-30T02:55:21.089Z,1016.71
2016-10-30T02:56:21.102Z,1016.7
2016-10-30T02:57:21.120Z,1016.7
2016-10-30T02:58:21.140Z,1016.69
2016-10-30T02:59:21.155Z,1016.67
2016-10-30T03:00:21.177Z,1016.68
2016-10-30T03:01:21.191Z,1016.65
2016-10-30T03:02:21.205Z,1016.69
2016-10-30T03:03:21.224Z,1016.7
2016-10-30T03:04:21.238Z,1016.72
2016-10-30T03:05:21.258Z,1016.71
2016-10-30T03:06:21.275Z,1016.7
2016-10-30T03:07:21.294Z,1016.7
2016-10-30T03:08:21.310Z,1016.7
2016-10-30T03:09:21.323Z,1016.71
2016-10-30T03:10:21.343Z,1016.64
2016-10-30T03:11:21.362Z,1016.66
2016-10-30T03:12:21.375Z,1016.66
2016-10-30T03:13:21.391Z,1016.67
2016-10-30T03:14:21.411Z,1016.73
2016-10-30T03:15:21.429Z,1016.76
2016-10-30T03:16:21.447Z,1016.74
2016-10-30T03:17:21.459Z,1016.72
2016-10-30T03:18:21.477Z,1016.7
2016-10-30T03:19:21.500Z,1016.67
2016-10-30T03:20:21.514Z,1016.69
2016-10-30T03:21:21.529Z,1016.75
2016-10-30T03:22:21.549Z,1016.7
2016-10-30T03:23:21.564Z,1016.72
2016-10-30T03:24:21.579Z,1016.71
2016-10-30T03:25:21.597Z,1016.7
2016-10-30T03:26:21.616Z,1016.7
2016-10-30T03:27:21.631Z,1016.72
2016-10-30T03:28:21.655Z,1016.76
2016-10-30T03:29:21.667Z,1016.73
2016-10-30T03:30:21.684Z,1016.8
2016-10-30T03:31:21.704Z,1016.83
2016-10-30T03:32:21.718Z,1016.87
2016-10-30T03:33:21.732Z,1016.84
2016-10-30T03:34:21.754Z,1016.85
2016-10-30T03:35:21.773Z,1016.82
2016-10-30T03:36:21.785Z,1016.81
2016-10-30T03:37:21.804Z,1016.83
2016-10-30T03:38:21.819Z,1016.79
2016-10-30T03:39:21.839Z,1016.79
2016-10-30T03:40:21.858Z,1016.83
2016-10-30T03:41:21.871Z,1016.82
2016-10-30T03:42:21.889Z,1016.83
2016-10-30T03:43:21.907Z,1016.89
2016-10-30T03:44:21.924Z,1016.87
2016-10-30T03:45:21.941Z,1016.81
2016-10-30T03:46:21.954Z,1016.85
2016-10-30T03:47:21.974Z,1016.83
2016-10-30T03:48:21.989Z,1016.86
2016-10-30T03:49:22.009Z,1016.85
2016-10-30T03:50:22.024Z,1016.84
2016-10-30T03:51:22.044Z,1016.89
2016-10-30T03:52:22.058Z,1016.83
2016-10-30T03:53:22.077Z,1016.84
2016-10-30T03:54:22.093Z,1016.88
2016-10-30T03:55:22.107Z,1016.85
2016-10-30T03:56:22.128Z,1016.81
2016-10-30T03:57:22.144Z,1016.84
2016-10-30T03:58:22.160Z,1016.82
2016-10-30T03:59:22.181Z,1016.82
2016-10-30T04:00:22.198Z,1016.85
2016-10-30T04:01:22.214Z,1016.81
2016-10-30T04:02:22.232Z,1016.82
2016-10-30T04:03:22.249Z,1016.83
2016-10-30T04:04:22.262Z,1016.78
2016-10-30T04:05:22.283Z,1016.8
2016-10-30T04:06:22.299Z,1016.86
2016-10-30T04:07:22.315Z,1016.83
2016-10-30T04:08:22.329Z,1016.82
2016-10-30T04:09:22.349Z,1016.84
2016-10-30T04:10:22.463Z,1016.86
2016-10-30T04:11:22.383Z,1016.85
2016-10-30T04:12:22.400Z,1016.87
2016-10-30T04:13:22.417Z,1016.85
2016-10-30T04:14:22.435Z,1016.8
2016-10-30T04:15:22.448Z,1016.84
2016-10-30T04:16:22.467Z,1016.8
2016-10-30T04:17:22.485Z,1016.82
2016-10-30T04:18:22.502Z,1016.8
2016-10-30T04:19:22.517Z,1016.78
2016-10-30T04:20:22.534Z,1016.81
2016-10-30T04:21:22.553Z,1016.77
2016-10-30T04:22:22.569Z,1016.81
2016-10-30T04:23:22.588Z,1016.85
2016-10-30T04:24:22.604Z,1016.84
2016-10-30T04:25:22.642Z,1016.9
2016-10-30T04:26:22.640Z,1016.86
2016-10-30T04:27:22.652Z,1016.89
2016-10-30T04:28:22.672Z,1016.92
2016-10-30T04:29:22.688Z,1016.87
2016-10-30T04:30:22.702Z,1016.89
2016-10-30T04:31:22.723Z,1016.84
2016-10-30T04:32:22.740Z,1016.85
2016-10-30T04:33:22.755Z,1016.85
2016-10-30T04:34:22.774Z,1016.82
2016-10-30T04:35:22.841Z,1016.78
2016-10-30T04:36:22.806Z,1016.78
2016-10-30T04:37:22.822Z,1016.8
2016-10-30T04:38:22.842Z,1016.81
2016-10-30T04:39:22.856Z,1016.83
2016-10-30T04:40:22.876Z,1016.84
2016-10-30T04:41:22.891Z,1016.81
2016-10-30T04:42:22.913Z,1016.86
2016-10-30T04:43:22.929Z,1016.92
2016-10-30T04:44:22.942Z,1016.87
2016-10-30T04:45:22.959Z,1016.88
2016-10-30T04:46:22.979Z,1016.87
2016-10-30T04:47:22.992Z,1016.88
2016-10-30T04:48:23.011Z,1016.87
2016-10-30T04:49:23.028Z,1016.88
2016-10-30T04:50:23.046Z,1016.79
2016-10-30T04:51:23.060Z,1016.78
2016-10-30T04:52:23.080Z,1016.74
2016-10-30T04:53:23.093Z,1016.76
2016-10-30T04:54:23.114Z,1016.77
2016-10-30T04:55:23.129Z,1016.78
2016-10-30T04:56:23.147Z,1016.78
2016-10-30T04:57:23.161Z,1016.76
2016-10-30T04:58:23.179Z,1016.81
2016-10-30T04:59:23.194Z,1016.78
2016-10-30T05:00:23.215Z,1016.81
2016-10-30T05:01:23.230Z,1016.77
2016-10-30T05:02:23.247Z,1016.81
2016-10-30T05:03:23.266Z,1016.77
2016-10-30T05:04:23.280Z,1016.78
2016-10-30T05:05:23.297Z,1016.77
2016-10-30T05:06:23.317Z,1016.75
2016-10-30T05:07:23.333Z,1016.74
2016-10-30T05:08:23.348Z,1016.74
2016-10-30T05:09:23.365Z,1016.74
2016-10-30T05:10:23.385Z,1016.73
2016-10-30T05:11:23.400Z,1016.76
2016-10-30T05:12:23.416Z,1016.76
2016-10-30T05:13:23.433Z,1016.71
2016-10-30T05:14:23.455Z,1016.72
2016-10-30T05:15:23.466Z,1016.66
2016-10-30T05:16:23.483Z,1016.66
2016-10-30T05:17:23.504Z,1016.66
2016-10-30T05:18:23.520Z,1016.65
2016-10-30T05:19:23.535Z,1016.64
2016-10-30T05:20:23.551Z,1016.67
2016-10-30T05:21:23.572Z,1016.67
2016-10-30T05:22:23.588Z,1016.69
2016-10-30T05:23:23.602Z,1016.67
2016-10-30T05:24:23.626Z,1016.71
2016-10-30T05:25:23.635Z,1016.71
2016-10-30T05:26:23.656Z,1016.69
2016-10-30T05:27:23.673Z,1016.66
2016-10-30T05:28:23.688Z,1016.66
2016-10-30T05:29:23.703Z,1016.6
2016-10-30T05:30:23.721Z,1016.58
2016-10-30T05:31:23.739Z,1016.62
2016-10-30T05:32:23.753Z,1016.59
2016-10-30T05:33:23.774Z,1016.57
2016-10-30T05:34:23.791Z,1016.6
2016-10-30T05:35:23.810Z,1016.59
2016-10-30T05:36:23.823Z,1016.56
2016-10-30T05:37:23.840Z,1016.57
2016-10-30T05:38:23.859Z,1016.59
2016-10-30T05:39:23.876Z,1016.59
2016-10-30T05:40:23.890Z,1016.56
2016-10-30T05:41:23.909Z,1016.54
2016-10-30T05:42:23.923Z,1016.57
2016-10-30T05:43:23.943Z,1016.59
2016-10-30T05:44:23.957Z,1016.56
2016-10-30T05:45:23.977Z,1016.55
2016-10-30T05:46:23.996Z,1016.55
2016-10-30T05:47:24.009Z,1016.55
2016-10-30T05:48:24.028Z,1016.5
2016-10-30T05:49:24.045Z,1016.5
2016-10-30T05:50:24.062Z,1016.49
2016-10-30T05:51:24.078Z,1016.48
2016-10-30T05:52:24.092Z,1016.52
2016-10-30T05:53:24.110Z,1016.49
2016-10-30T05:54:24.129Z,1016.5
2016-10-30T05:55:24.147Z,1016.5
2016-10-30T05:56:24.163Z,1016.52
2016-10-30T05:57:24.180Z,1016.54
2016-10-30T05:58:24.197Z,1016.53
2016-10-30T05:59:24.214Z,1016.54
2016-10-30T06:00:24.228Z,1016.61
2016-10-30T06:01:24.245Z,1016.57
2016-10-30T06:02:24.266Z,1016.6
2016-10-30T06:03:24.279Z,1016.61
2016-10-30T06:04:24.297Z,1016.6
2016-10-30T06:05:24.313Z,1016.61
2016-10-30T06:06:24.332Z,1016.66
2016-10-30T06:07:24.348Z,1016.63
2016-10-30T06:08:24.367Z,1016.6
2016-10-30T06:09:24.380Z,1016.65
2016-10-30T06:10:24.401Z,1016.66
2016-10-30T06:11:24.415Z,1016.69
2016-10-30T06:12:24.434Z,1016.74
2016-10-30T06:13:24.451Z,1016.73
2016-10-30T06:14:24.466Z,1016.72
2016-10-30T06:15:24.486Z,1016.76
2016-10-30T06:16:24.498Z,1016.75
2016-10-30T06:17:24.519Z,1016.78
2016-10-30T06:18:24.536Z,1016.8
2016-10-30T06:19:24.553Z,1016.82
2016-10-30T06:20:24.567Z,1016.79
2016-10-30T06:21:24.585Z,1016.82
2016-10-30T06:22:24.604Z,1016.79
2016-10-30T06:23:24.621Z,1016.81
2016-10-30T06:24:24.633Z,1016.75
2016-10-30T06:25:24.654Z,1016.77
2016-10-30T06:26:24.671Z,1016.78
2016-10-30T06:27:24.684Z,1016.84
2016-10-30T06:28:24.704Z,1016.82
2016-10-30T06:29:24.721Z,1016.81
2016-10-30T06:30:24.789Z,1016.87
2016-10-30T06:31:24.755Z,1016.89
2016-10-30T06:32:24.772Z,1016.89
2016-10-30T06:33:24.787Z,1016.89
2016-10-30T06:34:24.803Z,1016.88
2016-10-30T06:35:24.822Z,1016.92
2016-10-30T06:36:24.837Z,1016.91
2016-10-30T06:37:24.853Z,1016.94
2016-10-30T06:38:24.872Z,1016.92
2016-10-30T06:39:24.887Z,1016.92
2016-10-30T06:40:24.907Z,1016.88
2016-10-30T06:41:24.922Z,1016.86
2016-10-30T06:42:24.937Z,1016.91
2016-10-30T06:43:24.954Z,1016.89
2016-10-30T06:44:24.975Z,1016.9
2016-10-30T06:45:25.138Z,1016.88
2016-10-30T06:46:25.007Z,1016.91
2016-10-30T06:47:25.021Z,1016.89
2016-10-30T06:48:25.040Z,1016.95
2016-10-30T06:49:25.055Z,1016.96
2016-10-30T06:50:25.075Z,1016.96
2016-10-30T06:51:25.093Z,1016.95
2016-10-30T06:52:25.109Z,1016.98
2016-10-30T06:53:25.125Z,1016.98
2016-10-30T06:54:25.141Z,1017
2016-10-30T06:55:25.160Z,1017
2016-10-30T06:56:25.174Z,1016.99
2016-10-30T06:57:25.193Z,1016.95
2016-10-30T06:58:25.207Z,1016.98
2016-10-30T06:59:25.224Z,1016.98
2016-10-30T07:00:25.244Z,1016.98
2016-10-30T07:01:25.260Z,1016.97
2016-10-30T07:02:25.277Z,1016.98
2016-10-30T07:03:25.291Z,1016.92
2016-10-30T07:04:25.310Z,1016.97
2016-10-30T07:05:25.325Z,1016.99
2016-10-30T07:06:25.345Z,1016.93
2016-10-30T07:07:25.361Z,1016.99
2016-10-30T07:08:25.378Z,1016.99
2016-10-30T07:09:25.395Z,1017.01
2016-10-30T07:10:25.409Z,1017.03
2016-10-30T07:11:25.429Z,1016.99
2016-10-30T07:12:25.443Z,1017.01
2016-10-30T07:13:25.460Z,1017.06
2016-10-30T07:14:25.480Z,1017.03
2016-10-30T07:15:25.493Z,1017.04
2016-10-30T07:16:25.510Z,1017.01
2016-10-30T07:17:25.530Z,1016.99
2016-10-30T07:18:25.546Z,1017.02
2016-10-30T07:19:25.561Z,1017.01
2016-10-30T07:20:25.579Z,1017.03
2016-10-30T07:21:25.595Z,1017.03
2016-10-30T07:22:25.611Z,1017.02
2016-10-30T07:23:25.631Z,1017.05
2016-10-30T07:24:25.648Z,1017.04
2016-10-30T07:25:25.666Z,1017.03
2016-10-30T07:26:25.681Z,1017
2016-10-30T07:27:25.699Z,1017.01
2016-10-30T07:28:25.713Z,1017.06
2016-10-30T07:29:25.733Z,1017.08
2016-10-30T07:30:25.751Z,1017.03
2016-10-30T07:31:25.766Z,1017.08
2016-10-30T07:32:25.783Z,1017.07
2016-10-30T07:33:25.799Z,1017.07
2016-10-30T07:34:25.814Z,1017.08
2016-10-30T07:35:25.832Z,1017.06
2016-10-30T07:36:25.853Z,1017.08
2016-10-30T07:37:25.865Z,1017.09
2016-10-30T07:38:25.882Z,1017.08
2016-10-30T07:39:25.900Z,1017.12
2016-10-30T07:40:25.919Z,1017.17
2016-10-30T07:41:25.936Z,1017.16
2016-10-30T07:42:25.951Z,1017.11
2016-10-30T07:43:25.971Z,1017.12
2016-10-30T07:44:25.986Z,1017.15
2016-10-30T07:45:26.003Z,1017.16
2016-10-30T07:46:26.019Z,1017.19
2016-10-30T07:47:26.034Z,1017.21
2016-10-30T07:48:26.054Z,1017.22
2016-10-30T07:49:26.071Z,1017.23
2016-10-30T07:50:26.090Z,1017.27
2016-10-30T07:51:26.105Z,1017.26
2016-10-30T07:52:26.119Z,1017.3
2016-10-30T07:53:26.141Z,1017.25
2016-10-30T07:54:26.155Z,1017.17
2016-10-30T07:55:26.170Z,1017.23
2016-10-30T07:56:26.187Z,1017.26
2016-10-30T07:57:26.210Z,1017.23
2016-10-30T07:58:26.220Z,1017.26
2016-10-30T07:59:26.237Z,1017.25
2016-10-30T08:00:26.254Z,1017.26
2016-10-30T08:01:26.275Z,1017.3
2016-10-30T08:02:26.291Z,1017.34
2016-10-30T08:03:26.305Z,1017.35
2016-10-30T08:04:26.326Z,1017.31
2016-10-30T08:05:26.342Z,1017.3
2016-10-30T08:06:26.359Z,1017.29
2016-10-30T08:07:26.374Z,1017.25
2016-10-30T08:08:26.394Z,1017.26
2016-10-30T08:09:26.408Z,1017.21
2016-10-30T08:10:26.425Z,1017.22
2016-10-30T08:11:26.443Z,1017.28
2016-10-30T08:12:26.460Z,1017.25
2016-10-30T08:13:26.478Z,1017.23
2016-10-30T08:14:26.492Z,1017.22
2016-10-30T08:15:26.512Z,1017.22
2016-10-30T08:16:26.527Z,1017.2
2016-10-30T08:17:26.542Z,1017.2
2016-10-30T08:18:26.561Z,1017.19
2016-10-30T08:19:26.581Z,1017.18
2016-10-30T08:20:26.797Z,1017.22
2016-10-30T08:21:26.612Z,1017.26
2016-10-30T08:22:26.631Z,1017.22
2016-10-30T08:23:26.649Z,1017.24
2016-10-30T08:24:26.665Z,1017.25
2016-10-30T08:25:26.679Z,1017.21
2016-10-30T08:26:26.699Z,1017.22
2016-10-30T08:27:26.716Z,1017.2
2016-10-30T08:28:26.734Z,1017.23
2016-10-30T08:29:26.750Z,1017.21
2016-10-30T08:30:26.768Z,1017.22
2016-10-30T08:31:26.785Z,1017.24
2016-10-30T08:32:26.800Z,1017.22
2016-10-30T08:33:26.818Z,1017.19
2016-10-30T08:34:26.837Z,1017.23
2016-10-30T08:35:26.855Z,1017.24
2016-10-30T08:36:26.871Z,1017.28
2016-10-30T08:37:26.889Z,1017.23
2016-10-30T08:38:26.906Z,1017.22
2016-10-30T08:39:26.923Z,1017.24
2016-10-30T08:40:26.937Z,1017.26
2016-10-30T08:41:26.958Z,1017.26
2016-10-30T08:42:26.971Z,1017.23
2016-10-30T08:43:26.989Z,1017.28
2016-10-30T08:44:27.008Z,1017.23
2016-10-30T08:45:27.027Z,1017.18
2016-10-30T08:46:27.043Z,1017.15
2016-10-30T08:47:27.061Z,1017.18
2016-10-30T08:48:27.079Z,1017.18
2016-10-30T08:49:27.093Z,1017.21
2016-10-30T08:50:27.110Z,1017.19
2016-10-30T08:51:27.128Z,1017.21
2016-10-30T08:52:27.148Z,1017.23
2016-10-30T08:53:27.161Z,1017.26
2016-10-30T08:54:27.179Z,1017.26
2016-10-30T08:55:27.199Z,1017.24
2016-10-30T08:56:27.219Z,1017.24
2016-10-30T08:57:27.234Z,1017.24
2016-10-30T08:58:27.251Z,1017.29
2016-10-30T08:59:27.269Z,1017.28
2016-10-30T09:00:27.283Z,1017.29
2016-10-30T09:01:27.300Z,1017.28
2016-10-30T09:02:27.321Z,1017.27
2016-10-30T09:03:27.339Z,1017.28
2016-10-30T09:04:27.353Z,1017.3
2016-10-30T09:05:27.373Z,1017.3
2016-10-30T09:06:27.391Z,1017.34
2016-10-30T09:07:27.406Z,1017.34
2016-10-30T09:08:27.425Z,1017.33
2016-10-30T09:09:27.443Z,1017.31
2016-10-30T09:10:27.461Z,1017.32
2016-10-30T09:11:27.479Z,1017.33
2016-10-30T09:12:27.497Z,1017.34
2016-10-30T09:13:27.512Z,1017.34
2016-10-30T09:14:27.532Z,1017.34
2016-10-30T09:15:27.549Z,1017.35
2016-10-30T09:16:27.567Z,1017.27
2016-10-30T09:17:27.584Z,1017.35
2016-10-30T09:18:27.600Z,1017.37
2016-10-30T09:19:27.620Z,1017.36
2016-10-30T09:20:27.637Z,1017.35
2016-10-30T09:21:27.655Z,1017.41
2016-10-30T09:22:27.672Z,1017.38
2016-10-30T09:23:27.720Z,1017.42
2016-10-30T09:24:27.708Z,1017.42
2016-10-30T09:25:27.725Z,1017.36
2016-10-30T09:26:27.742Z,1017.35
2016-10-30T09:27:27.758Z,1017.36
2016-10-30T09:28:27.776Z,1017.31
2016-10-30T09:29:27.797Z,1017.27
2016-10-30T09:30:27.815Z,1017.32
2016-10-30T09:31:27.830Z,1017.33
2016-10-30T09:32:27.850Z,1017.35
2016-10-30T09:33:27.867Z,1017.33
2016-10-30T09:34:27.885Z,1017.31
2016-10-30T09:35:27.902Z,1017.36
2016-10-30T09:36:27.921Z,1017.36
2016-10-30T09:37:27.935Z,1017.37
2016-10-30T09:38:27.956Z,1017.38
2016-10-30T09:39:27.971Z,1017.39
2016-10-30T09:40:27.999Z,1017.4
2016-10-30T09:41:28.008Z,1017.37
2016-10-30T09:42:28.024Z,1017.4
2016-10-30T09:43:28.042Z,1017.38
2016-10-30T09:44:28.062Z,1017.4
2016-10-30T09:45:28.080Z,1017.39
2016-10-30T09:46:28.098Z,1017.41
2016-10-30T09:47:28.115Z,1017.45
2016-10-30T09:48:28.135Z,1017.45
2016-10-30T09:49:28.149Z,1017.41
2016-10-30T09:50:28.170Z,1017.48
2016-10-30T09:51:28.185Z,1017.41
2016-10-30T09:52:28.211Z,1017.38
2016-10-30T09:53:28.222Z,1017.38
2016-10-30T09:54:28.239Z,1017.36
2016-10-30T09:55:28.260Z,1017.36
2016-10-30T09:56:28.273Z,1017.3
2016-10-30T09:57:28.297Z,1017.29
2016-10-30T09:58:28.313Z,1017.27
2016-10-30T09:59:28.335Z,1017.27
2016-10-30T10:00:28.349Z,1017.26
2016-10-30T10:01:28.367Z,1017.27
2016-10-30T10:02:28.395Z,1017.33
2016-10-30T10:03:28.405Z,1017.38
2016-10-30T10:04:28.421Z,1017.37
2016-10-30T10:05:28.438Z,1017.31
2016-10-30T10:06:28.463Z,1017.33
2016-10-30T10:07:28.473Z,1017.3
2016-10-30T10:08:28.496Z,1017.3
2016-10-30T10:09:28.511Z,1017.37
2016-10-30T10:10:28.528Z,1017.27
2016-10-30T10:11:28.548Z,1017.33
2016-10-30T10:12:28.563Z,1017.36
2016-10-30T10:13:28.583Z,1017.38
2016-10-30T10:14:28.599Z,1017.37
2016-10-30T10:15:28.619Z,1017.41
2016-10-30T10:16:28.635Z,1017.37
2016-10-30T10:17:28.653Z,1017.38
2016-10-30T10:18:28.683Z,1017.42
2016-10-30T10:19:28.691Z,1017.39
2016-10-30T10:20:28.907Z,1017.45
2016-10-30T10:21:28.725Z,1017.4
2016-10-30T10:22:28.748Z,1017.37
2016-10-30T10:23:28.765Z,1017.35
2016-10-30T10:24:28.780Z,1017.35
2016-10-30T10:25:28.798Z,1017.36
2016-10-30T10:26:28.819Z,1017.33
2016-10-30T10:27:28.838Z,1017.32
2016-10-30T10:28:28.869Z,1017.28
2016-10-30T10:29:28.876Z,1017.32
2016-10-30T10:30:28.894Z,1017.32
2016-10-30T10:31:28.911Z,1017.3
2016-10-30T10:32:28.924Z,1017.34
2016-10-30T10:33:28.950Z,1017.33
2016-10-30T10:34:28.963Z,1017.34
2016-10-30T10:35:28.985Z,1017.29
2016-10-30T10:36:28.997Z,1017.26
2016-10-30T10:37:29.021Z,1017.28
2016-10-30T10:38:29.075Z,1017.25
2016-10-30T10:39:29.198Z,1017.25
2016-10-30T10:40:29.121Z,1017.26
2016-10-30T10:41:29.133Z,1017.25
2016-10-30T10:42:29.152Z,1017.23
2016-10-30T10:43:29.171Z,1017.22
2016-10-30T10:44:29.196Z,1017.2
2016-10-30T10:45:29.205Z,1017.21
2016-10-30T10:46:29.232Z,1017.19
2016-10-30T10:47:29.246Z,1017.22
2016-10-30T10:48:29.276Z,1017.26
2016-10-30T10:49:29.288Z,1017.21
2016-10-30T10:50:29.318Z,1017.18
2016-10-30T10:51:29.320Z,1017.21
2016-10-30T10:52:29.345Z,1017.24
2016-10-30T10:53:29.353Z,1017.17
2016-10-30T10:54:29.375Z,1017.14
2016-10-30T10:55:29.391Z,1017.15
2016-10-30T10:56:29.409Z,1017.16
2016-10-30T10:57:29.430Z,1017.2
2016-10-30T10:58:29.457Z,1017.16
2016-10-30T10:59:29.464Z,1017.19
2016-10-30T11:00:29.487Z,1017.17
2016-10-30T11:01:29.460Z,1017.13
2016-10-30T11:02:29.474Z,1017.17
2016-10-30T11:03:29.495Z,1017.17
2016-10-30T11:04:29.511Z,1017.18
2016-10-30T11:05:29.529Z,1017.18
2016-10-30T11:06:29.551Z,1017.18
2016-10-30T11:07:29.570Z,1017.2
2016-10-30T11:08:29.584Z,1017.22
2016-10-30T11:09:29.605Z,1017.18
2016-10-30T11:10:29.621Z,1017.18
2016-10-30T11:11:29.642Z,1017.22
2016-10-30T11:12:29.657Z,1017.15
2016-10-30T11:13:29.676Z,1017.2
2016-10-30T11:14:29.695Z,1017.19
2016-10-30T11:15:29.717Z,1017.17
2016-10-30T11:16:29.733Z,1017.18
2016-10-30T11:17:29.750Z,1017.18
2016-10-30T11:18:29.770Z,1017.14
2016-10-30T11:19:29.789Z,1017.15
2016-10-30T11:20:29.805Z,1017.15
2016-10-30T11:21:29.824Z,1017.13
2016-10-30T11:22:29.841Z,1017.19
2016-10-30T11:23:29.860Z,1017.16
2016-10-30T11:24:29.879Z,1017.17
2016-10-30T11:25:29.896Z,1017.15
2016-10-30T11:26:29.917Z,1017.1
2016-10-30T11:27:29.932Z,1017.15
2016-10-30T11:28:29.953Z,1017.14
2016-10-30T11:29:29.973Z,1017.15
2016-10-30T11:30:29.989Z,1017.14
2016-10-30T11:31:30.118Z,1017.14
2016-10-30T11:32:30.027Z,1017.1
2016-10-30T11:33:30.136Z,1017.1
2016-10-30T11:34:30.061Z,1017.07
2016-10-30T11:35:30.080Z,1017.07
2016-10-30T11:36:30.099Z,1017.06
2016-10-30T11:37:30.117Z,1017.09
2016-10-30T11:38:30.139Z,1017.05
2016-10-30T11:39:30.156Z,1017.03
2016-10-30T11:40:30.175Z,1017.06
2016-10-30T11:41:30.192Z,1017.02
2016-10-30T11:42:30.211Z,1017.05
2016-10-30T11:43:30.229Z,1017.12
2016-10-30T11:44:30.249Z,1017.07
2016-10-30T11:45:30.264Z,1017.1
2016-10-30T11:46:30.288Z,1017.03
2016-10-30T11:47:30.302Z,1017.05
2016-10-30T11:48:30.329Z,1017.01
2016-10-30T11:49:30.338Z,1016.95
2016-10-30T11:50:30.359Z,1017.01
2016-10-30T11:51:30.380Z,1017.02
2016-10-30T11:52:30.395Z,1017.02
2016-10-30T11:53:30.412Z,1016.99
2016-10-30T11:54:30.445Z,1016.98
2016-10-30T11:55:30.455Z,1016.95
2016-10-30T11:56:30.470Z,1016.94
2016-10-30T11:57:30.492Z,1016.97
2016-10-30T11:58:30.509Z,1016.98
2016-10-30T11:59:30.525Z,1016.98
2016-10-30T12:00:30.545Z,1017
2016-10-30T12:01:30.562Z,1017.01
2016-10-30T12:02:30.582Z,1017.02
2016-10-30T12:03:30.600Z,1016.98
2016-10-30T12:04:30.619Z,1017
2016-10-30T12:05:30.637Z,1016.94
2016-10-30T12:06:30.655Z,1016.98
2016-10-30T12:07:30.675Z,1016.96
2016-10-30T12:08:30.695Z,1016.96